sensor_id;sensor_type;location;lat;lon;timestamp;P1;durP1;ratioP1;P2;durP2;ratioP2
20441;SDS011;10380;52.102;20.614;2023-06-14T00:00:56;11.20;;;7.50;;
20441;SDS011;10380;52.102;20.614;2023-06-14T00:03:23;11.33;;;7.30;;
20441;SDS011;10380;52.102;20.614;2023-06-14T00:05:51;14.80;;;8.93;;
20441;SDS011;10380;52.102;20.614;2023-06-14T00:08:18;12.83;;;8.97;;
20441;SDS011;10380;52.102;20.614;2023-06-14T00:10:47;9.43;;;7.70;;
20441;SDS011;10380;52.102;20.614;2023-06-14T00:13:15;11.70;;;8.90;;
20441;SDS011;10380;52.102;20.614;2023-06-14T00:15:42;11.43;;;8.10;;
20441;SDS011;10380;52.102;20.614;2023-06-14T00:18:10;15.30;;;8.30;;
20441;SDS011;10380;52.102;20.614;2023-06-14T00:20:38;14.47;;;9.33;;
20441;SDS011;10380;52.102;20.614;2023-06-14T00:23:08;9.73;;;8.13;;
20441;SDS011;10380;52.102;20.614;2023-06-14T00:25:35;13.80;;;9.67;;
20441;SDS011;10380;52.102;20.614;2023-06-14T00:28:03;12.10;;;8.57;;
20441;SDS011;10380;52.102;20.614;2023-06-14T00:30:30;12.10;;;8.53;;
20441;SDS011;10380;52.102;20.614;2023-06-14T00:32:58;13.60;;;8.03;;
20441;SDS011;10380;52.102;20.614;2023-06-14T00:35:25;12.70;;;8.97;;
20441;SDS011;10380;52.102;20.614;2023-06-14T00:37:52;17.10;;;8.60;;
20441;SDS011;10380;52.102;20.614;2023-06-14T00:40:21;13.63;;;8.67;;
20441;SDS011;10380;52.102;20.614;2023-06-14T00:42:49;13.33;;;8.87;;
20441;SDS011;10380;52.102;20.614;2023-06-14T00:45:17;12.57;;;8.83;;
20441;SDS011;10380;52.102;20.614;2023-06-14T00:47:45;10.73;;;9.40;;
20441;SDS011;10380;52.102;20.614;2023-06-14T00:50:12;14.43;;;9.03;;
20441;SDS011;10380;52.102;20.614;2023-06-14T00:52:40;14.80;;;9.80;;
20441;SDS011;10380;52.102;20.614;2023-06-14T00:55:08;11.00;;;8.27;;
20441;SDS011;10380;52.102;20.614;2023-06-14T00:57:35;12.50;;;8.63;;
20441;SDS011;10380;52.102;20.614;2023-06-14T01:00:04;14.50;;;9.23;;
20441;SDS011;10380;52.102;20.614;2023-06-14T01:02:36;12.00;;;9.47;;
20441;SDS011;10380;52.102;20.614;2023-06-14T01:05:04;11.50;;;9.17;;
20441;SDS011;10380;52.102;20.614;2023-06-14T01:07:46;13.87;;;9.10;;
20441;SDS011;10380;52.102;20.614;2023-06-14T01:15:55;12.00;;;8.60;;
20441;SDS011;10380;52.102;20.614;2023-06-14T01:18:23;12.00;;;8.23;;
20441;SDS011;10380;52.102;20.614;2023-06-14T01:20:52;11.90;;;7.93;;
20441;SDS011;10380;52.102;20.614;2023-06-14T01:23:22;12.67;;;9.23;;
20441;SDS011;10380;52.102;20.614;2023-06-14T01:25:51;12.97;;;9.10;;
20441;SDS011;10380;52.102;20.614;2023-06-14T01:28:21;11.40;;;8.67;;
20441;SDS011;10380;52.102;20.614;2023-06-14T01:30:49;14.93;;;8.60;;
20441;SDS011;10380;52.102;20.614;2023-06-14T01:33:20;11.52;;;8.38;;
20441;SDS011;10380;52.102;20.614;2023-06-14T01:35:50;11.07;;;8.80;;
20441;SDS011;10380;52.102;20.614;2023-06-14T01:38:22;9.87;;;8.40;;
20441;SDS011;10380;52.102;20.614;2023-06-14T01:40:51;10.17;;;8.70;;
20441;SDS011;10380;52.102;20.614;2023-06-14T01:43:21;11.77;;;8.43;;
20441;SDS011;10380;52.102;20.614;2023-06-14T01:45:50;10.90;;;8.47;;
20441;SDS011;10380;52.102;20.614;2023-06-14T01:48:20;12.33;;;9.00;;
20441;SDS011;10380;52.102;20.614;2023-06-14T01:50:48;12.43;;;8.50;;
20441;SDS011;10380;52.102;20.614;2023-06-14T01:53:16;12.03;;;8.43;;
20441;SDS011;10380;52.102;20.614;2023-06-14T01:55:43;10.93;;;8.80;;
20441;SDS011;10380;52.102;20.614;2023-06-14T01:58:15;11.97;;;8.77;;
20441;SDS011;10380;52.102;20.614;2023-06-14T02:00:43;11.67;;;7.60;;
20441;SDS011;10380;52.102;20.614;2023-06-14T02:03:11;8.30;;;7.47;;
20441;SDS011;10380;52.102;20.614;2023-06-14T02:05:39;11.37;;;8.17;;
20441;SDS011;10380;52.102;20.614;2023-06-14T02:08:07;10.33;;;8.77;;
20441;SDS011;10380;52.102;20.614;2023-06-14T02:10:35;11.40;;;8.90;;
20441;SDS011;10380;52.102;20.614;2023-06-14T02:13:02;10.40;;;8.67;;
20441;SDS011;10380;52.102;20.614;2023-06-14T02:15:30;8.67;;;7.77;;
20441;SDS011;10380;52.102;20.614;2023-06-14T02:18:04;11.17;;;8.87;;
20441;SDS011;10380;52.102;20.614;2023-06-14T02:20:31;11.03;;;7.90;;
20441;SDS011;10380;52.102;20.614;2023-06-14T02:22:59;9.87;;;8.27;;
20441;SDS011;10380;52.102;20.614;2023-06-14T02:25:26;8.03;;;7.23;;
20441;SDS011;10380;52.102;20.614;2023-06-14T02:27:54;10.00;;;7.90;;
20441;SDS011;10380;52.102;20.614;2023-06-14T02:30:22;9.03;;;7.87;;
20441;SDS011;10380;52.102;20.614;2023-06-14T02:32:49;10.10;;;7.93;;
20441;SDS011;10380;52.102;20.614;2023-06-14T02:35:17;12.07;;;8.10;;
20441;SDS011;10380;52.102;20.614;2023-06-14T02:37:46;9.33;;;8.03;;
20441;SDS011;10380;52.102;20.614;2023-06-14T02:40:14;12.63;;;8.60;;
20441;SDS011;10380;52.102;20.614;2023-06-14T02:42:41;12.00;;;8.63;;
20441;SDS011;10380;52.102;20.614;2023-06-14T02:45:08;12.37;;;8.27;;
20441;SDS011;10380;52.102;20.614;2023-06-14T02:47:36;10.83;;;8.03;;
20441;SDS011;10380;52.102;20.614;2023-06-14T02:50:03;9.43;;;7.90;;
20441;SDS011;10380;52.102;20.614;2023-06-14T02:52:31;9.53;;;8.07;;
20441;SDS011;10380;52.102;20.614;2023-06-14T02:54:59;10.00;;;8.57;;
20441;SDS011;10380;52.102;20.614;2023-06-14T02:57:27;10.80;;;8.30;;
20441;SDS011;10380;52.102;20.614;2023-06-14T02:59:54;11.70;;;8.97;;
20441;SDS011;10380;52.102;20.614;2023-06-14T03:02:21;11.93;;;8.97;;
20441;SDS011;10380;52.102;20.614;2023-06-14T03:04:48;10.80;;;8.67;;
20441;SDS011;10380;52.102;20.614;2023-06-14T03:07:16;10.00;;;7.67;;
20441;SDS011;10380;52.102;20.614;2023-06-14T03:09:48;13.77;;;9.10;;
20441;SDS011;10380;52.102;20.614;2023-06-14T03:12:16;11.37;;;8.23;;
20441;SDS011;10380;52.102;20.614;2023-06-14T03:14:43;10.80;;;8.77;;
20441;SDS011;10380;52.102;20.614;2023-06-14T03:17:12;11.60;;;8.77;;
20441;SDS011;10380;52.102;20.614;2023-06-14T03:19:40;10.67;;;8.50;;
20441;SDS011;10380;52.102;20.614;2023-06-14T03:22:07;10.97;;;8.23;;
20441;SDS011;10380;52.102;20.614;2023-06-14T03:24:35;10.40;;;8.65;;
20441;SDS011;10380;52.102;20.614;2023-06-14T03:27:03;9.53;;;8.50;;
20441;SDS011;10380;52.102;20.614;2023-06-14T03:29:31;11.70;;;8.73;;
20441;SDS011;10380;52.102;20.614;2023-06-14T03:34:26;10.30;;;8.50;;
20441;SDS011;10380;52.102;20.614;2023-06-14T03:36:53;12.07;;;8.30;;
20441;SDS011;10380;52.102;20.614;2023-06-14T03:39:20;9.30;;;8.00;;
20441;SDS011;10380;52.102;20.614;2023-06-14T03:41:48;9.53;;;8.00;;
20441;SDS011;10380;52.102;20.614;2023-06-14T03:44:16;13.67;;;7.90;;
20441;SDS011;10380;52.102;20.614;2023-06-14T03:46:45;12.77;;;8.70;;
20441;SDS011;10380;52.102;20.614;2023-06-14T03:49:13;9.77;;;8.27;;
20441;SDS011;10380;52.102;20.614;2023-06-14T03:51:40;9.63;;;7.93;;
20441;SDS011;10380;52.102;20.614;2023-06-14T03:54:07;10.03;;;8.23;;
20441;SDS011;10380;52.102;20.614;2023-06-14T03:56:37;10.83;;;8.13;;
20441;SDS011;10380;52.102;20.614;2023-06-14T03:59:05;10.77;;;8.67;;
20441;SDS011;10380;52.102;20.614;2023-06-14T04:01:32;11.43;;;8.80;;
20441;SDS011;10380;52.102;20.614;2023-06-14T04:04:00;8.73;;;7.40;;
20441;SDS011;10380;52.102;20.614;2023-06-14T04:06:29;9.53;;;7.63;;
20441;SDS011;10380;52.102;20.614;2023-06-14T04:08:59;12.77;;;8.07;;
20441;SDS011;10380;52.102;20.614;2023-06-14T04:11:31;10.13;;;7.70;;
20441;SDS011;10380;52.102;20.614;2023-06-14T04:13:58;10.57;;;7.47;;
20441;SDS011;10380;52.102;20.614;2023-06-14T04:16:27;9.07;;;7.67;;
20441;SDS011;10380;52.102;20.614;2023-06-14T04:18:54;10.20;;;7.50;;
20441;SDS011;10380;52.102;20.614;2023-06-14T04:21:24;10.37;;;8.20;;
20441;SDS011;10380;52.102;20.614;2023-06-14T04:23:52;11.27;;;8.40;;
20441;SDS011;10380;52.102;20.614;2023-06-14T04:26:22;11.67;;;7.90;;
20441;SDS011;10380;52.102;20.614;2023-06-14T04:28:52;11.40;;;8.70;;
20441;SDS011;10380;52.102;20.614;2023-06-14T04:31:23;9.93;;;8.07;;
20441;SDS011;10380;52.102;20.614;2023-06-14T04:33:51;12.60;;;8.53;;
20441;SDS011;10380;52.102;20.614;2023-06-14T04:36:20;10.93;;;8.40;;
20441;SDS011;10380;52.102;20.614;2023-06-14T04:38:49;12.15;;;8.10;;
20441;SDS011;10380;52.102;20.614;2023-06-14T04:41:20;12.60;;;8.60;;
20441;SDS011;10380;52.102;20.614;2023-06-14T04:43:49;11.05;;;8.00;;
20441;SDS011;10380;52.102;20.614;2023-06-14T04:46:16;9.63;;;7.03;;
20441;SDS011;10380;52.102;20.614;2023-06-14T04:48:44;7.93;;;6.78;;
20441;SDS011;10380;52.102;20.614;2023-06-14T04:51:12;9.30;;;7.30;;
20441;SDS011;10380;52.102;20.614;2023-06-14T04:53:39;12.30;;;7.70;;
20441;SDS011;10380;52.102;20.614;2023-06-14T04:56:07;9.50;;;7.60;;
20441;SDS011;10380;52.102;20.614;2023-06-14T04:58:34;9.07;;;7.50;;
20441;SDS011;10380;52.102;20.614;2023-06-14T05:01:02;8.95;;;7.43;;
20441;SDS011;10380;52.102;20.614;2023-06-14T05:03:29;10.65;;;7.18;;
20441;SDS011;10380;52.102;20.614;2023-06-14T05:05:57;10.05;;;6.93;;
20441;SDS011;10380;52.102;20.614;2023-06-14T05:08:24;11.07;;;8.02;;
20441;SDS011;10380;52.102;20.614;2023-06-14T05:10:52;9.70;;;6.70;;
20441;SDS011;10380;52.102;20.614;2023-06-14T05:13:19;7.88;;;6.35;;
20441;SDS011;10380;52.102;20.614;2023-06-14T05:15:49;9.32;;;6.93;;
20441;SDS011;10380;52.102;20.614;2023-06-14T05:18:16;9.63;;;6.72;;
20441;SDS011;10380;52.102;20.614;2023-06-14T05:20:45;9.23;;;6.63;;
20441;SDS011;10380;52.102;20.614;2023-06-14T05:23:12;8.15;;;6.55;;
20441;SDS011;10380;52.102;20.614;2023-06-14T05:25:46;8.43;;;6.72;;
20441;SDS011;10380;52.102;20.614;2023-06-14T05:28:13;9.18;;;7.35;;
20441;SDS011;10380;52.102;20.614;2023-06-14T05:30:41;8.82;;;6.60;;
20441;SDS011;10380;52.102;20.614;2023-06-14T05:33:08;8.75;;;7.70;;
20441;SDS011;10380;52.102;20.614;2023-06-14T05:35:35;10.13;;;7.43;;
20441;SDS011;10380;52.102;20.614;2023-06-14T05:38:05;13.70;;;7.10;;
20441;SDS011;10380;52.102;20.614;2023-06-14T05:40:34;8.82;;;7.55;;
20441;SDS011;10380;52.102;20.614;2023-06-14T05:43:01;16.33;;;6.82;;
20441;SDS011;10380;52.102;20.614;2023-06-14T05:45:28;8.07;;;6.78;;
20441;SDS011;10380;52.102;20.614;2023-06-14T05:47:56;12.80;;;7.00;;
20441;SDS011;10380;52.102;20.614;2023-06-14T05:50:23;10.15;;;6.85;;
20441;SDS011;10380;52.102;20.614;2023-06-14T05:52:50;9.60;;;6.78;;
20441;SDS011;10380;52.102;20.614;2023-06-14T05:55:17;11.73;;;7.07;;
20441;SDS011;10380;52.102;20.614;2023-06-14T05:57:45;13.02;;;8.70;;
20441;SDS011;10380;52.102;20.614;2023-06-14T06:00:12;12.65;;;7.05;;
20441;SDS011;10380;52.102;20.614;2023-06-14T06:02:43;12.68;;;8.30;;
20441;SDS011;10380;52.102;20.614;2023-06-14T06:05:11;11.93;;;7.32;;
20441;SDS011;10380;52.102;20.614;2023-06-14T06:07:39;9.75;;;7.43;;
20441;SDS011;10380;52.102;20.614;2023-06-14T06:10:07;10.05;;;7.00;;
20441;SDS011;10380;52.102;20.614;2023-06-14T06:12:34;10.90;;;7.65;;
20441;SDS011;10380;52.102;20.614;2023-06-14T06:15:01;10.05;;;6.78;;
20441;SDS011;10380;52.102;20.614;2023-06-14T06:17:29;9.70;;;7.18;;
20441;SDS011;10380;52.102;20.614;2023-06-14T06:20:12;9.73;;;6.97;;
20441;SDS011;10380;52.102;20.614;2023-06-14T06:22:39;9.02;;;7.47;;
20441;SDS011;10380;52.102;20.614;2023-06-14T06:25:06;11.15;;;7.00;;
20441;SDS011;10380;52.102;20.614;2023-06-14T06:27:33;8.85;;;6.40;;
20441;SDS011;10380;52.102;20.614;2023-06-14T06:30:03;11.05;;;7.47;;
20441;SDS011;10380;52.102;20.614;2023-06-14T06:32:31;8.18;;;7.07;;
20441;SDS011;10380;52.102;20.614;2023-06-14T06:34:59;9.55;;;7.15;;
20441;SDS011;10380;52.102;20.614;2023-06-14T06:37:26;8.10;;;6.30;;
20441;SDS011;10380;52.102;20.614;2023-06-14T06:39:53;10.10;;;7.07;;
20441;SDS011;10380;52.102;20.614;2023-06-14T06:42:20;10.52;;;6.88;;
20441;SDS011;10380;52.102;20.614;2023-06-14T06:44:48;9.80;;;6.85;;
20441;SDS011;10380;52.102;20.614;2023-06-14T06:47:15;7.88;;;6.50;;
20441;SDS011;10380;52.102;20.614;2023-06-14T06:49:42;11.13;;;6.57;;
20441;SDS011;10380;52.102;20.614;2023-06-14T06:52:11;9.82;;;7.25;;
20441;SDS011;10380;52.102;20.614;2023-06-14T06:54:38;8.65;;;6.45;;
20441;SDS011;10380;52.102;20.614;2023-06-14T06:57:05;12.52;;;6.95;;
20441;SDS011;10380;52.102;20.614;2023-06-14T06:59:33;11.95;;;7.47;;
20441;SDS011;10380;52.102;20.614;2023-06-14T07:02:00;15.82;;;6.60;;
20441;SDS011;10380;52.102;20.614;2023-06-14T07:04:27;11.32;;;6.53;;
20441;SDS011;10380;52.102;20.614;2023-06-14T07:06:54;9.10;;;6.18;;
20441;SDS011;10380;52.102;20.614;2023-06-14T07:09:21;9.05;;;7.03;;
20441;SDS011;10380;52.102;20.614;2023-06-14T07:11:49;9.65;;;5.88;;
20441;SDS011;10380;52.102;20.614;2023-06-14T07:14:16;7.18;;;5.88;;
20441;SDS011;10380;52.102;20.614;2023-06-14T07:16:43;10.85;;;6.18;;
20441;SDS011;10380;52.102;20.614;2023-06-14T07:19:10;8.20;;;5.40;;
20441;SDS011;10380;52.102;20.614;2023-06-14T07:21:38;9.07;;;6.18;;
20441;SDS011;10380;52.102;20.614;2023-06-14T07:24:06;8.65;;;6.07;;
20441;SDS011;10380;52.102;20.614;2023-06-14T07:26:34;7.28;;;6.07;;
20441;SDS011;10380;52.102;20.614;2023-06-14T07:29:01;9.43;;;5.78;;
20441;SDS011;10380;52.102;20.614;2023-06-14T07:31:29;12.13;;;5.95;;
20441;SDS011;10380;52.102;20.614;2023-06-14T07:33:56;6.38;;;5.40;;
20441;SDS011;10380;52.102;20.614;2023-06-14T07:36:23;10.13;;;5.95;;
20441;SDS011;10380;52.102;20.614;2023-06-14T07:38:51;6.93;;;6.20;;
20441;SDS011;10380;52.102;20.614;2023-06-14T07:41:18;9.23;;;5.65;;
20441;SDS011;10380;52.102;20.614;2023-06-14T07:43:46;8.60;;;5.20;;
20441;SDS011;10380;52.102;20.614;2023-06-14T07:46:14;8.93;;;6.22;;
20441;SDS011;10380;52.102;20.614;2023-06-14T07:48:41;11.52;;;5.82;;
20441;SDS011;10380;52.102;20.614;2023-06-14T07:51:08;7.65;;;4.90;;
20441;SDS011;10380;52.102;20.614;2023-06-14T07:53:35;10.43;;;6.38;;
20441;SDS011;10380;52.102;20.614;2023-06-14T07:56:02;5.88;;;4.82;;
20441;SDS011;10380;52.102;20.614;2023-06-14T07:58:30;6.88;;;4.93;;
20441;SDS011;10380;52.102;20.614;2023-06-14T08:00:57;8.05;;;4.95;;
20441;SDS011;10380;52.102;20.614;2023-06-14T08:03:25;8.25;;;4.75;;
20441;SDS011;10380;52.102;20.614;2023-06-14T08:05:53;5.80;;;3.72;;
20441;SDS011;10380;52.102;20.614;2023-06-14T08:08:20;8.15;;;3.35;;
20441;SDS011;10380;52.102;20.614;2023-06-14T08:10:47;9.13;;;3.75;;
20441;SDS011;10380;52.102;20.614;2023-06-14T08:13:14;5.88;;;3.45;;
20441;SDS011;10380;52.102;20.614;2023-06-14T08:15:43;6.10;;;3.80;;
20441;SDS011;10380;52.102;20.614;2023-06-14T08:18:10;7.20;;;3.10;;
20441;SDS011;10380;52.102;20.614;2023-06-14T08:20:38;4.95;;;3.58;;
20441;SDS011;10380;52.102;20.614;2023-06-14T08:23:06;5.43;;;3.40;;
20441;SDS011;10380;52.102;20.614;2023-06-14T08:25:34;3.72;;;3.28;;
20441;SDS011;10380;52.102;20.614;2023-06-14T08:28:01;5.70;;;3.58;;
20441;SDS011;10380;52.102;20.614;2023-06-14T08:30:28;3.97;;;2.97;;
20441;SDS011;10380;52.102;20.614;2023-06-14T08:32:55;8.60;;;3.40;;
20441;SDS011;10380;52.102;20.614;2023-06-14T08:35:40;11.88;;;4.05;;
20441;SDS011;10380;52.102;20.614;2023-06-14T08:38:08;7.43;;;3.30;;
20441;SDS011;10380;52.102;20.614;2023-06-14T08:40:37;7.55;;;3.03;;
20441;SDS011;10380;52.102;20.614;2023-06-14T08:43:07;5.85;;;3.13;;
20441;SDS011;10380;52.102;20.614;2023-06-14T08:45:34;5.00;;;3.15;;
20441;SDS011;10380;52.102;20.614;2023-06-14T08:48:01;6.45;;;3.35;;
20441;SDS011;10380;52.102;20.614;2023-06-14T08:50:30;9.98;;;3.28;;
20441;SDS011;10380;52.102;20.614;2023-06-14T08:53:01;5.05;;;4.15;;
20441;SDS011;10380;52.102;20.614;2023-06-14T08:55:30;4.38;;;3.15;;
20441;SDS011;10380;52.102;20.614;2023-06-14T08:58:03;7.00;;;3.28;;
20441;SDS011;10380;52.102;20.614;2023-06-14T09:00:31;4.78;;;3.85;;
20441;SDS011;10380;52.102;20.614;2023-06-14T09:03:00;5.63;;;4.47;;
20441;SDS011;10380;52.102;20.614;2023-06-14T09:05:27;9.23;;;3.58;;
20441;SDS011;10380;52.102;20.614;2023-06-14T09:07:55;4.25;;;3.35;;
20441;SDS011;10380;52.102;20.614;2023-06-14T09:10:30;6.22;;;3.10;;
20441;SDS011;10380;52.102;20.614;2023-06-14T09:13:00;3.85;;;2.58;;
20441;SDS011;10380;52.102;20.614;2023-06-14T09:15:28;6.32;;;4.38;;
20441;SDS011;10380;52.102;20.614;2023-06-14T09:17:56;6.03;;;2.83;;
20441;SDS011;10380;52.102;20.614;2023-06-14T09:20:24;5.45;;;3.50;;
20441;SDS011;10380;52.102;20.614;2023-06-14T09:22:51;5.55;;;3.40;;
20441;SDS011;10380;52.102;20.614;2023-06-14T09:25:19;4.38;;;3.00;;
20441;SDS011;10380;52.102;20.614;2023-06-14T09:28:06;6.93;;;3.05;;
20441;SDS011;10380;52.102;20.614;2023-06-14T09:30:35;7.00;;;3.75;;
20441;SDS011;10380;52.102;20.614;2023-06-14T09:33:03;6.88;;;2.80;;
20441;SDS011;10380;52.102;20.614;2023-06-14T09:35:31;6.85;;;3.13;;
20441;SDS011;10380;52.102;20.614;2023-06-14T09:37:58;5.80;;;2.67;;
20441;SDS011;10380;52.102;20.614;2023-06-14T09:40:26;5.75;;;3.50;;
20441;SDS011;10380;52.102;20.614;2023-06-14T09:42:53;5.15;;;2.50;;
20441;SDS011;10380;52.102;20.614;2023-06-14T09:45:24;8.85;;;3.20;;
20441;SDS011;10380;52.102;20.614;2023-06-14T09:47:55;5.38;;;2.85;;
20441;SDS011;10380;52.102;20.614;2023-06-14T09:50:32;5.03;;;3.20;;
20441;SDS011;10380;52.102;20.614;2023-06-14T09:53:05;3.97;;;2.25;;
20441;SDS011;10380;52.102;20.614;2023-06-14T09:55:34;3.65;;;3.30;;
20441;SDS011;10380;52.102;20.614;2023-06-14T09:58:04;4.63;;;3.60;;
20441;SDS011;10380;52.102;20.614;2023-06-14T10:00:33;6.72;;;4.78;;
20441;SDS011;10380;52.102;20.614;2023-06-14T10:03:03;6.50;;;5.70;;
20441;SDS011;10380;52.102;20.614;2023-06-14T10:05:38;8.13;;;5.15;;
20441;SDS011;10380;52.102;20.614;2023-06-14T10:08:08;11.00;;;5.70;;
20441;SDS011;10380;52.102;20.614;2023-06-14T10:10:39;7.40;;;5.05;;
20441;SDS011;10380;52.102;20.614;2023-06-14T10:13:09;8.25;;;5.35;;
20441;SDS011;10380;52.102;20.614;2023-06-14T10:19:07;8.05;;;5.43;;
20441;SDS011;10380;52.102;20.614;2023-06-14T10:22:12;7.35;;;5.47;;
20441;SDS011;10380;52.102;20.614;2023-06-14T10:24:45;9.13;;;6.55;;
20441;SDS011;10380;52.102;20.614;2023-06-14T10:27:13;10.73;;;6.05;;
20441;SDS011;10380;52.102;20.614;2023-06-14T10:32:22;9.75;;;6.63;;
20441;SDS011;10380;52.102;20.614;2023-06-14T10:35:27;6.00;;;5.38;;
20441;SDS011;10380;52.102;20.614;2023-06-14T10:37:47;8.98;;;5.00;;
20441;SDS011;10380;52.102;20.614;2023-06-14T10:40:29;7.50;;;5.13;;
20441;SDS011;10380;52.102;20.614;2023-06-14T10:42:57;7.20;;;4.90;;
20441;SDS011;10380;52.102;20.614;2023-06-14T10:45:24;8.40;;;5.07;;
20441;SDS011;10380;52.102;20.614;2023-06-14T10:47:51;9.13;;;5.22;;
20441;SDS011;10380;52.102;20.614;2023-06-14T10:50:27;11.35;;;5.90;;
20441;SDS011;10380;52.102;20.614;2023-06-14T10:52:57;9.27;;;5.78;;
20441;SDS011;10380;52.102;20.614;2023-06-14T10:55:24;6.72;;;4.95;;
20441;SDS011;10380;52.102;20.614;2023-06-14T10:57:52;11.00;;;6.15;;
20441;SDS011;10380;52.102;20.614;2023-06-14T11:00:25;10.35;;;5.00;;
20441;SDS011;10380;52.102;20.614;2023-06-14T11:05:55;11.40;;;6.38;;
20441;SDS011;10380;52.102;20.614;2023-06-14T11:11:07;8.43;;;5.38;;
20441;SDS011;10380;52.102;20.614;2023-06-14T11:13:41;6.10;;;4.68;;
20441;SDS011;10380;52.102;20.614;2023-06-14T11:16:14;5.72;;;4.72;;
20441;SDS011;10380;52.102;20.614;2023-06-14T11:18:44;10.30;;;4.45;;
20441;SDS011;10380;52.102;20.614;2023-06-14T11:21:15;6.93;;;4.68;;
20441;SDS011;10380;52.102;20.614;2023-06-14T11:23:50;5.45;;;4.60;;
20441;SDS011;10380;52.102;20.614;2023-06-14T11:26:25;6.28;;;4.05;;
20441;SDS011;10380;52.102;20.614;2023-06-14T11:28:57;8.27;;;3.65;;
20441;SDS011;10380;52.102;20.614;2023-06-14T11:31:26;4.22;;;3.30;;
20441;SDS011;10380;52.102;20.614;2023-06-14T11:33:54;6.78;;;3.70;;
20441;SDS011;10380;52.102;20.614;2023-06-14T11:36:26;5.10;;;3.92;;
20441;SDS011;10380;52.102;20.614;2023-06-14T11:41:32;4.53;;;3.22;;
20441;SDS011;10380;52.102;20.614;2023-06-14T11:44:10;6.43;;;3.78;;
20441;SDS011;10380;52.102;20.614;2023-06-14T11:46:38;5.10;;;3.22;;
20441;SDS011;10380;52.102;20.614;2023-06-14T11:49:06;9.32;;;4.10;;
20441;SDS011;10380;52.102;20.614;2023-06-14T11:51:34;8.00;;;4.05;;
20441;SDS011;10380;52.102;20.614;2023-06-14T11:54:02;11.13;;;3.65;;
20441;SDS011;10380;52.102;20.614;2023-06-14T11:56:30;10.15;;;4.50;;
20441;SDS011;10380;52.102;20.614;2023-06-14T11:58:58;6.90;;;4.22;;
20441;SDS011;10380;52.102;20.614;2023-06-14T12:01:29;5.72;;;3.97;;
20441;SDS011;10380;52.102;20.614;2023-06-14T12:03:58;5.50;;;3.90;;
20441;SDS011;10380;52.102;20.614;2023-06-14T12:06:26;5.15;;;4.20;;
20441;SDS011;10380;52.102;20.614;2023-06-14T12:08:55;6.50;;;3.85;;
20441;SDS011;10380;52.102;20.614;2023-06-14T12:11:23;4.00;;;3.60;;
20441;SDS011;10380;52.102;20.614;2023-06-14T12:13:50;6.10;;;3.28;;
20441;SDS011;10380;52.102;20.614;2023-06-14T12:16:17;4.72;;;3.00;;
20441;SDS011;10380;52.102;20.614;2023-06-14T12:18:45;4.22;;;3.00;;
20441;SDS011;10380;52.102;20.614;2023-06-14T12:21:12;10.38;;;3.17;;
20441;SDS011;10380;52.102;20.614;2023-06-14T12:23:46;4.70;;;2.40;;
20441;SDS011;10380;52.102;20.614;2023-06-14T12:26:14;7.45;;;3.22;;
20441;SDS011;10380;52.102;20.614;2023-06-14T12:28:42;8.23;;;3.35;;
20441;SDS011;10380;52.102;20.614;2023-06-14T12:31:12;6.20;;;3.40;;
20441;SDS011;10380;52.102;20.614;2023-06-14T12:33:40;5.38;;;2.80;;
20441;SDS011;10380;52.102;20.614;2023-06-14T12:36:08;4.53;;;2.55;;
20441;SDS011;10380;52.102;20.614;2023-06-14T12:38:36;4.68;;;2.70;;
20441;SDS011;10380;52.102;20.614;2023-06-14T12:41:04;5.45;;;2.85;;
20441;SDS011;10380;52.102;20.614;2023-06-14T12:43:31;4.72;;;3.22;;
20441;SDS011;10380;52.102;20.614;2023-06-14T12:45:59;2.83;;;2.53;;
20441;SDS011;10380;52.102;20.614;2023-06-14T12:48:27;6.35;;;2.80;;
20441;SDS011;10380;52.102;20.614;2023-06-14T12:50:54;9.07;;;2.97;;
20441;SDS011;10380;52.102;20.614;2023-06-14T12:53:21;6.22;;;3.13;;
20441;SDS011;10380;52.102;20.614;2023-06-14T12:55:49;5.68;;;3.33;;
20441;SDS011;10380;52.102;20.614;2023-06-14T12:58:17;4.03;;;2.70;;
20441;SDS011;10380;52.102;20.614;2023-06-14T13:00:46;6.90;;;3.58;;
20441;SDS011;10380;52.102;20.614;2023-06-14T13:03:14;9.85;;;3.30;;
20441;SDS011;10380;52.102;20.614;2023-06-14T13:05:41;5.50;;;2.97;;
20441;SDS011;10380;52.102;20.614;2023-06-14T13:08:09;6.03;;;3.67;;
20441;SDS011;10380;52.102;20.614;2023-06-14T13:10:37;5.00;;;2.20;;
20441;SDS011;10380;52.102;20.614;2023-06-14T13:13:05;3.08;;;1.92;;
20441;SDS011;10380;52.102;20.614;2023-06-14T13:15:34;7.40;;;2.58;;
20441;SDS011;10380;52.102;20.614;2023-06-14T13:18:01;5.63;;;2.22;;
20441;SDS011;10380;52.102;20.614;2023-06-14T13:20:29;3.70;;;2.47;;
20441;SDS011;10380;52.102;20.614;2023-06-14T13:22:57;5.60;;;2.72;;
20441;SDS011;10380;52.102;20.614;2023-06-14T13:25:24;4.60;;;2.33;;
20441;SDS011;10380;52.102;20.614;2023-06-14T13:27:51;3.88;;;2.20;;
20441;SDS011;10380;52.102;20.614;2023-06-14T13:30:20;4.90;;;2.80;;
20441;SDS011;10380;52.102;20.614;2023-06-14T13:32:47;4.47;;;2.50;;
20441;SDS011;10380;52.102;20.614;2023-06-14T13:35:16;3.42;;;2.25;;
20441;SDS011;10380;52.102;20.614;2023-06-14T13:37:43;3.95;;;2.10;;
20441;SDS011;10380;52.102;20.614;2023-06-14T13:40:11;4.93;;;2.17;;
20441;SDS011;10380;52.102;20.614;2023-06-14T13:42:38;6.68;;;2.42;;
20441;SDS011;10380;52.102;20.614;2023-06-14T13:45:06;6.07;;;2.05;;
20441;SDS011;10380;52.102;20.614;2023-06-14T13:47:35;12.07;;;2.17;;
20441;SDS011;10380;52.102;20.614;2023-06-14T13:50:04;5.43;;;1.92;;
20441;SDS011;10380;52.102;20.614;2023-06-14T13:52:32;2.45;;;1.92;;
20441;SDS011;10380;52.102;20.614;2023-06-14T13:55:00;6.13;;;2.22;;
20441;SDS011;10380;52.102;20.614;2023-06-14T13:57:27;7.13;;;2.38;;
20441;SDS011;10380;52.102;20.614;2023-06-14T13:59:54;3.17;;;2.30;;
20441;SDS011;10380;52.102;20.614;2023-06-14T14:02:29;4.38;;;2.83;;
20441;SDS011;10380;52.102;20.614;2023-06-14T14:04:56;5.22;;;3.17;;
20441;SDS011;10380;52.102;20.614;2023-06-14T14:07:26;5.10;;;2.58;;
20441;SDS011;10380;52.102;20.614;2023-06-14T14:12:28;3.88;;;2.20;;
20441;SDS011;10380;52.102;20.614;2023-06-14T14:14:56;3.17;;;2.22;;
20441;SDS011;10380;52.102;20.614;2023-06-14T14:17:23;3.00;;;2.10;;
20441;SDS011;10380;52.102;20.614;2023-06-14T14:19:51;3.63;;;2.20;;
20441;SDS011;10380;52.102;20.614;2023-06-14T14:22:18;4.22;;;2.63;;
20441;SDS011;10380;52.102;20.614;2023-06-14T14:24:45;5.50;;;2.65;;
20441;SDS011;10380;52.102;20.614;2023-06-14T14:27:14;5.30;;;2.17;;
20441;SDS011;10380;52.102;20.614;2023-06-14T14:29:41;3.60;;;2.17;;
20441;SDS011;10380;52.102;20.614;2023-06-14T14:32:08;5.80;;;2.25;;
20441;SDS011;10380;52.102;20.614;2023-06-14T14:34:42;4.43;;;2.45;;
20441;SDS011;10380;52.102;20.614;2023-06-14T14:37:09;6.00;;;2.35;;
20441;SDS011;10380;52.102;20.614;2023-06-14T14:39:36;4.95;;;2.35;;
20441;SDS011;10380;52.102;20.614;2023-06-14T14:42:04;6.25;;;2.50;;
20441;SDS011;10380;52.102;20.614;2023-06-14T14:44:33;5.68;;;3.30;;
20441;SDS011;10380;52.102;20.614;2023-06-14T14:47:03;4.55;;;2.67;;
20441;SDS011;10380;52.102;20.614;2023-06-14T14:49:31;7.10;;;2.92;;
20441;SDS011;10380;52.102;20.614;2023-06-14T14:51:58;5.20;;;2.58;;
20441;SDS011;10380;52.102;20.614;2023-06-14T14:54:45;5.70;;;3.20;;
20441;SDS011;10380;52.102;20.614;2023-06-14T14:57:12;4.25;;;3.05;;
20441;SDS011;10380;52.102;20.614;2023-06-14T14:59:39;10.18;;;3.42;;
20441;SDS011;10380;52.102;20.614;2023-06-14T15:02:06;5.68;;;3.47;;